CSCL Dalian — VRBH4 — position and weather

sailwx.info

Track history (hours):
 
Tides and Currents Weather Stations Pressure Air Temp Water Temp Dewpoint Dewpoint Depression Visibility Wind Speed Wind Dir Waves Ship Positions

CSCL Dalian

Last reported at 2016-Sep-30 10:33 UTC. Time now 2016-Sep-30 11:46 UTC.
Position N 34°07' W 119°36'.

Length 259.8 m; ; draft 11 m.

Type: Ship (hazmat cat A). MMSI: 477014600.

Date/timePositionNaut miles runAvg speedWind from/ knotsBaromVisibWave heightAir tempDewpointWater temp
2016-Sep-30 10:33N 34°07' W 119°36'2711.8
2016-Sep-30 08:18N 34°14' W 120°07'5411.4
2016-Sep-30 03:33N 34°35' W 121°08'1313.4
2016-Sep-30 02:33N 34°46' W 121°17'3913.1
2016-Sep-29 23:33N 35°18' W 121°44'2713.5
2016-Sep-29 21:33N 35°40' W 122°03'1413.6
2016-Sep-29 20:33N 35°52' W 122°13'1313.4
2016-Sep-29 19:33N 36°03' W 122°22'4113.6
2016-Sep-29 16:33N 36°41' W 122°40'1413.7
2016-Sep-29 15:33N 36°55' W 122°42'1413.9
2016-Sep-29 14:33N 37°08' W 122°43'1414.4
2016-Sep-29 13:33N 37°23' W 122°44'32 6.3
2016-Sep-29 08:33N 37°48' W 122°19'0 0.0
2016-Sep-29 07:33N 37°48' W 122°19'0 0.0
2016-Sep-29 00:33N 37°48' W 122°19'0 0.0
2016-Sep-28 21:33N 37°48' W 122°19'0 0.0
2016-Sep-28 19:33N 37°48' W 122°19'0 0.0
2016-Sep-28 16:33N 37°48' W 122°19'0 0.0
2016-Sep-28 15:33N 37°48' W 122°19'0 0.0
2016-Sep-28 12:33N 37°48' W 122°19'3 0.7
2016-Sep-28 08:32N 37°45' W 122°21'0 0.1
2016-Sep-28 03:32N 37°45' W 122°21'0 0.1
2016-Sep-28 02:32N 37°45' W 122°20'0 0.0
2016-Sep-28 01:32N 37°45' W 122°20'0 0.1
2016-Sep-27 23:32N 37°45' W 122°21'23 5.7
2016-Sep-27 19:34N 37°47' W 122°49'5611.3
2016-Sep-27 14:33N 38°27' W 123°41'1111.2
2016-Sep-27 13:34N 38°35' W 123°50'3511.8
2016-Sep-27 10:34N 39°03' W 124°18'26711.6
2016-Sep-26 11:33N 43°26' W 125°16'3913.0
2016-Sep-26 08:33N 44°05' W 125°16'8113.2
2016-Sep-26 02:26N 45°26' W 125°16'1314.4
2016-Sep-26 01:33N 45°39' W 125°16'1514.5
2016-Sep-26 00:33N 45°53' W 125°16'4214.1
2016-Sep-25 21:33N 46°36' W 125°16'5112.7
2016-Sep-25 17:34N 47°26' W 125°16'48 9.5
2016-Sep-25 12:33N 48°14' W 125°16'1010.0
2016-Sep-25 11:33N 48°23' W 125°10'1311.0
2016-Sep-25 10:23N 48°31' W 124°54'3612.6
2016-Sep-25 07:34N 48°19' W 124°03'3110.2
2016-Sep-25 04:33N 48°23' W 123°17'4611.6
2016-Sep-25 00:33N 49°09' W 123°03'6 2.7
2016-Sep-24 22:32N 49°11' W 122°55'0 0.0
2016-Sep-24 21:29N 49°11' W 122°55'0 0.0
2016-Sep-24 19:32N 49°11' W 122°55'0 0.0
2016-Sep-24 18:32N 49°11' W 122°55'0 0.0
2016-Sep-24 17:32N 49°11' W 122°55'0 0.0
2016-Sep-24 16:32N 49°11' W 122°55'0 0.0
2016-Sep-24 14:32N 49°11' W 122°55'0 0.0
2016-Sep-24 12:32N 49°11' W 122°55'0 0.0
2016-Sep-24 10:32N 49°11' W 122°55'0 0.0
2016-Sep-24 09:32N 49°11' W 122°55'0 0.0
2016-Sep-24 03:32N 49°11' W 122°55'0 0.0
2016-Sep-24 02:32N 49°11' W 122°55'0 0.0
2016-Sep-24 01:32N 49°11' W 122°55'0 0.0
2016-Sep-24 00:32N 49°11' W 122°55'0 0.0
2016-Sep-23 19:29N 49°11' W 122°55'0 0.0
2016-Sep-23 17:32N 49°11' W 122°55'0 0.0
2016-Sep-23 16:33N 49°11' W 122°55'0 0.0
2016-Sep-23 15:33N 49°11' W 122°55'0 0.0
2016-Sep-23 13:32N 49°11' W 122°55'17 4.2
2016-Sep-23 09:33N 49°01' W 123°15'3812.8
2016-Sep-23 06:33N 48°22' W 123°16'12 6.1
2016-Sep-23 04:33N 48°14' W 123°29'8 7.9
2016-Sep-23 03:33N 48°09' W 123°19'1817.6
2016-Sep-23 02:32N 48°12' W 122°53'1616.1
2016-Sep-23 01:33N 48°01' W 122°37'1717.0
2016-Sep-23 00:33N 47°45' W 122°26'1010.1
2016-Sep-22 23:33N 47°36' W 122°21'1 0.2
2016-Sep-22 20:33N 47°35' W 122°21'0 0.0
2016-Sep-22 12:33N 47°35' W 122°21'0 0.0
2016-Sep-22 04:32N 47°35' W 122°21'0 0.0
2016-Sep-22 03:32N 47°35' W 122°21'0 0.0
2016-Sep-22 00:33N 47°35' W 122°21'0 0.0
2016-Sep-21 23:32N 47°35' W 122°21'0 0.0
2016-Sep-21 22:32N 47°35' W 122°21'3010.2
2016-Sep-21 19:33N 48°03' W 122°39'4213.9
2016-Sep-21 16:32N 48°13' W 123°40'66 9.4
2016-Sep-21 09:33N 47°59' W 125°16'1414.2
2016-Sep-21 08:33N 47°45' W 125°16'4214.0
2016-Sep-21 05:33N 47°03' W 125°16'2814.2
2016-Sep-21 03:34N 46°34' W 125°16'1514.6
2016-Sep-21 02:33N 46°20' W 125°16'  
Track history (hours):
 
Tides and Currents Weather Stations Pressure Air Temp Water Temp Dewpoint Dewpoint Depression Visibility Wind Speed Wind Dir Waves Ship Positions

CSCL Dalian

Last reported at 2016-Sep-30 10:33 UTC. Time now 2016-Sep-30 11:46 UTC.
Position N 34°07' W 119°36'.

Length 259.8 m; ; draft 11 m.

Type: Ship (hazmat cat A). MMSI: 477014600.

Date/timePositionNaut miles runAvg speedWind from/ knotsBaromVisibWave heightAir tempDewpointWater temp
2016-Sep-30 10:33N 34°07' W 119°36'2711.8
2016-Sep-30 08:18N 34°14' W 120°07'5411.4
2016-Sep-30 03:33N 34°35' W 121°08'1313.4
2016-Sep-30 02:33N 34°46' W 121°17'3913.1
2016-Sep-29 23:33N 35°18' W 121°44'2713.5
2016-Sep-29 21:33N 35°40' W 122°03'1413.6
2016-Sep-29 20:33N 35°52' W 122°13'1313.4
2016-Sep-29 19:33N 36°03' W 122°22'4113.6
2016-Sep-29 16:33N 36°41' W 122°40'1413.7
2016-Sep-29 15:33N 36°55' W 122°42'1413.9
2016-Sep-29 14:33N 37°08' W 122°43'1414.4
2016-Sep-29 13:33N 37°23' W 122°44'32 6.3
2016-Sep-29 08:33N 37°48' W 122°19'0 0.0
2016-Sep-29 07:33N 37°48' W 122°19'0 0.0
2016-Sep-29 00:33N 37°48' W 122°19'0 0.0
2016-Sep-28 21:33N 37°48' W 122°19'0 0.0
2016-Sep-28 19:33N 37°48' W 122°19'0 0.0
2016-Sep-28 16:33N 37°48' W 122°19'0 0.0
2016-Sep-28 15:33N 37°48' W 122°19'0 0.0
2016-Sep-28 12:33N 37°48' W 122°19'3 0.7
2016-Sep-28 08:32N 37°45' W 122°21'0 0.1
2016-Sep-28 03:32N 37°45' W 122°21'0 0.1
2016-Sep-28 02:32N 37°45' W 122°20'0 0.0
2016-Sep-28 01:32N 37°45' W 122°20'0 0.1
2016-Sep-27 23:32N 37°45' W 122°21'23 5.7
2016-Sep-27 19:34N 37°47' W 122°49'5611.3
2016-Sep-27 14:33N 38°27' W 123°41'1111.2
2016-Sep-27 13:34N 38°35' W 123°50'3511.8
2016-Sep-27 10:34N 39°03' W 124°18'26711.6
2016-Sep-26 11:33N 43°26' W 125°16'3913.0
2016-Sep-26 08:33N 44°05' W 125°16'8113.2
2016-Sep-26 02:26N 45°26' W 125°16'1314.4
2016-Sep-26 01:33N 45°39' W 125°16'1514.5
2016-Sep-26 00:33N 45°53' W 125°16'4214.1
2016-Sep-25 21:33N 46°36' W 125°16'5112.7
2016-Sep-25 17:34N 47°26' W 125°16'48 9.5
2016-Sep-25 12:33N 48°14' W 125°16'1010.0
2016-Sep-25 11:33N 48°23' W 125°10'1311.0
2016-Sep-25 10:23N 48°31' W 124°54'3612.6
2016-Sep-25 07:34N 48°19' W 124°03'3110.2
2016-Sep-25 04:33N 48°23' W 123°17'4611.6
2016-Sep-25 00:33N 49°09' W 123°03'6 2.7
2016-Sep-24 22:32N 49°11' W 122°55'0 0.0
2016-Sep-24 21:29N 49°11' W 122°55'0 0.0
2016-Sep-24 19:32N 49°11' W 122°55'0 0.0
2016-Sep-24 18:32N 49°11' W 122°55'0 0.0
2016-Sep-24 17:32N 49°11' W 122°55'0 0.0
2016-Sep-24 16:32N 49°11' W 122°55'0 0.0
2016-Sep-24 14:32N 49°11' W 122°55'0 0.0
2016-Sep-24 12:32N 49°11' W 122°55'0 0.0
2016-Sep-24 10:32N 49°11' W 122°55'0 0.0
2016-Sep-24 09:32N 49°11' W 122°55'0 0.0
2016-Sep-24 03:32N 49°11' W 122°55'0 0.0
2016-Sep-24 02:32N 49°11' W 122°55'0 0.0
2016-Sep-24 01:32N 49°11' W 122°55'0 0.0
2016-Sep-24 00:32N 49°11' W 122°55'0 0.0
2016-Sep-23 19:29N 49°11' W 122°55'0 0.0
2016-Sep-23 17:32N 49°11' W 122°55'0 0.0
2016-Sep-23 16:33N 49°11' W 122°55'0 0.0
2016-Sep-23 15:33N 49°11' W 122°55'0 0.0
2016-Sep-23 13:32N 49°11' W 122°55'17 4.2
2016-Sep-23 09:33N 49°01' W 123°15'3812.8
2016-Sep-23 06:33N 48°22' W 123°16'12 6.1
2016-Sep-23 04:33N 48°14' W 123°29'8 7.9
2016-Sep-23 03:33N 48°09' W 123°19'1817.6
2016-Sep-23 02:32N 48°12' W 122°53'1616.1
2016-Sep-23 01:33N 48°01' W 122°37'1717.0
2016-Sep-23 00:33N 47°45' W 122°26'1010.1
2016-Sep-22 23:33N 47°36' W 122°21'1 0.2
2016-Sep-22 20:33N 47°35' W 122°21'0 0.0
2016-Sep-22 12:33N 47°35' W 122°21'0 0.0
2016-Sep-22 04:32N 47°35' W 122°21'0 0.0
2016-Sep-22 03:32N 47°35' W 122°21'0 0.0
2016-Sep-22 00:33N 47°35' W 122°21'0 0.0
2016-Sep-21 23:32N 47°35' W 122°21'0 0.0
2016-Sep-21 22:32N 47°35' W 122°21'3010.2
2016-Sep-21 19:33N 48°03' W 122°39'4213.9
2016-Sep-21 16:32N 48°13' W 123°40'66 9.4
2016-Sep-21 09:33N 47°59' W 125°16'1414.2
2016-Sep-21 08:33N 47°45' W 125°16'4214.0
2016-Sep-21 05:33N 47°03' W 125°16'2814.2
2016-Sep-21 03:34N 46°34' W 125°16'1514.6
2016-Sep-21 02:33N 46°20' W 125°16'  

Dump ship's entire track history